Time;durP1;ratioP1;P1;durP2;ratioP2;P2;SDS_P1;SDS_P2;PMS_P1;PMS_P2;Temp;Humidity;BMP_temperature;BMP_pressure;BME280_temperature;BME280_humidity;BME280_pressure;Samples;Min_cycle;Max_cycle;Signal;HPM_P1;HPM_P2
2023/08/11 00:01:39;;;;;;;12.23;2.53;;;19.40;99.90;;;;;;5052670;28;20650;-68
2023/08/11 00:04:06;;;;;;;11.77;3.15;;;19.40;99.90;;;;;;5052702;28;20216;-69
2023/08/11 00:06:32;;;;;;;15.57;3.60;;;;;;;;;;5046243;28;20174;-68
2023/08/11 00:08:59;;;;;;;11.43;3.00;;;19.40;99.90;;;;;;5032805;28;20210;-68
2023/08/11 00:11:26;;;;;;;16.58;3.50;;;19.50;99.90;;;;;;5032432;28;20170;-68
2023/08/11 00:13:52;;;;;;;16.67;3.60;;;;;;;;;;5032627;28;20643;-69
2023/08/11 00:16:18;;;;;;;12.63;2.83;;;19.30;99.90;;;;;;5032280;28;20230;-69
2023/08/11 00:18:45;;;;;;;12.95;2.95;;;19.40;99.90;;;;;;5032309;28;20182;-69
2023/08/11 00:21:12;;;;;;;14.15;3.35;;;19.30;99.90;;;;;;5032259;28;20177;-68
2023/08/11 00:23:39;;;;;;;12.50;2.88;;;19.40;99.90;;;;;;5032496;28;20256;-70
2023/08/11 00:26:06;;;;;;;12.90;3.30;;;19.50;99.90;;;;;;5032095;28;20312;-69
2023/08/11 00:28:32;;;;;;;12.40;3.15;;;19.40;99.90;;;;;;5032357;28;20818;-69
2023/08/11 00:30:57;;;;;;;14.05;3.08;;;19.30;99.90;;;;;;5032021;28;20166;-69
2023/08/11 00:33:23;;;;;;;13.60;2.70;;;19.30;99.90;;;;;;5032262;28;20182;-69
2023/08/11 00:35:49;;;;;;;13.43;3.03;;;19.30;99.90;;;;;;5032012;28;20170;-70
2023/08/11 00:38:14;;;;;;;10.13;3.10;;;19.30;99.90;;;;;;5032383;28;20206;-70
2023/08/11 00:40:40;;;;;;;10.18;2.65;;;19.30;99.90;;;;;;5032074;28;20206;-69
2023/08/11 00:43:05;;;;;;;11.15;2.28;;;19.30;99.90;;;;;;5031900;28;20173;-70
2023/08/11 00:45:31;;;;;;;9.65;2.20;;;19.20;99.90;;;;;;5031966;28;20169;-69
2023/08/11 00:47:58;;;;;;;3.80;1.52;;;;;;;;;;5031780;28;20210;-69
2023/08/11 00:50:24;;;;;;;6.60;2.00;;;19.00;99.90;;;;;;5031981;28;20174;-69
2023/08/11 00:52:50;;;;;;;6.90;2.22;;;19.20;99.90;;;;;;5031900;28;20184;-69
2023/08/11 00:55:18;;;;;;;5.25;1.70;;;19.20;99.90;;;;;;5031735;28;20252;-69
2023/08/11 00:57:45;;;;;;;5.00;1.80;;;19.30;99.90;;;;;;5031875;28;20173;-69
2023/08/11 01:00:15;;;;;;;3.97;1.13;;;19.20;99.90;;;;;;5031715;28;20591;-69
2023/08/11 01:02:43;;;;;;;4.45;1.50;;;19.30;99.90;;;;;;5031673;28;20659;-70
2023/08/11 01:05:14;;;;;;;5.60;1.48;;;19.20;99.90;;;;;;5031755;28;20166;-70
2023/08/11 01:08:00;;;;;;;4.72;1.60;;;19.20;99.90;;;;;;5031444;28;20691;-70
2023/08/11 01:10:45;;;;;;;3.83;1.30;;;19.10;99.90;;;;;;5031285;28;20241;-69
2023/08/11 01:13:14;;;;;;;3.08;1.20;;;19.10;99.90;;;;;;5031781;28;20177;-70
2023/08/11 01:15:43;;;;;;;2.72;1.20;;;19.10;99.90;;;;;;5031482;28;20240;-70
2023/08/11 01:18:11;;;;;;;4.47;1.27;;;19.10;99.90;;;;;;5032004;28;20193;-70
2023/08/11 01:20:37;;;;;;;3.83;1.63;;;;;;;;;;5039804;28;20165;-69
2023/08/11 01:23:06;;;;;;;5.60;1.67;;;19.10;99.90;;;;;;5050885;28;20161;-69
2023/08/11 01:25:33;;;;;;;5.15;1.58;;;19.10;99.90;;;;;;5036660;28;20221;-71
2023/08/11 01:27:59;;;;;;;4.85;1.42;;;19.10;99.90;;;;;;5030505;28;20292;-69
2023/08/11 01:30:27;;;;;;;3.90;1.45;;;19.00;99.90;;;;;;5046468;28;20178;-70
2023/08/11 01:32:53;;;;;;;5.10;1.40;;;;;;;;;;5030962;28;20182;-70
2023/08/11 01:35:22;;;;;;;4.30;1.63;;;19.00;99.90;;;;;;5031086;28;20169;-69
2023/08/11 01:37:48;;;;;;;5.25;1.88;;;18.90;99.90;;;;;;5044222;28;20184;-69
2023/08/11 01:40:14;;;;;;;6.18;1.35;;;18.80;99.90;;;;;;5050909;28;20169;-69
2023/08/11 01:42:42;;;;;;;5.30;1.90;;;19.00;99.90;;;;;;5050795;28;20552;-69
2023/08/11 01:45:09;;;;;;;3.72;1.70;;;19.20;99.90;;;;;;5050933;28;20180;-69
2023/08/11 01:47:40;;;;;;;6.07;1.58;;;19.00;99.90;;;;;;5050607;28;20230;-69
2023/08/11 01:50:07;;;;;;;4.90;1.42;;;19.20;99.90;;;;;;5050755;28;20183;-69
2023/08/11 01:52:39;;;;;;;3.38;1.30;;;18.60;99.90;;;;;;5050479;28;20201;-69
2023/08/11 01:55:09;;;;;;;2.78;1.20;;;19.00;99.90;;;;;;5030878;28;20173;-69
2023/08/11 01:57:36;;;;;;;2.50;1.20;;;19.00;99.90;;;;;;5037632;28;20177;-69
2023/08/11 02:00:07;;;;;;;2.83;1.40;;;19.10;99.90;;;;;;5050863;28;20165;-70
2023/08/11 02:02:33;;;;;;;3.75;1.55;;;19.30;99.90;;;;;;5049595;28;20192;-69
2023/08/11 02:04:59;;;;;;;2.45;1.10;;;;;;;;;;5050109;28;20177;-69
2023/08/11 02:07:24;;;;;;;3.88;1.42;;;18.90;99.90;;;;;;5050224;28;20195;-69
2023/08/11 02:09:54;;;;;;;1.83;1.23;;;19.20;99.90;;;;;;5050128;28;20199;-69
2023/08/11 02:12:20;;;;;;;4.32;1.40;;;;;;;;;;5050257;28;20260;-69
2023/08/11 02:14:45;;;;;;;3.15;1.27;;;19.00;99.90;;;;;;5050488;28;20250;-69
2023/08/11 02:17:11;;;;;;;2.95;1.10;;;19.30;99.90;;;;;;5050481;28;20667;-70
2023/08/11 02:19:37;;;;;;;2.58;1.30;;;;;;;;;;5050509;28;20692;-71
2023/08/11 02:22:03;;;;;;;3.88;1.20;;;19.00;99.90;;;;;;5050576;28;20169;-69
2023/08/11 02:24:29;;;;;;;2.05;0.90;;;;;;;;;;5050466;28;20173;-69
2023/08/11 02:26:56;;;;;;;2.35;0.90;;;19.20;99.90;;;;;;5050375;28;20174;-71
2023/08/11 02:29:22;;;;;;;2.47;1.30;;;19.10;99.90;;;;;;5050242;28;20224;-71
2023/08/11 02:31:48;;;;;;;2.80;0.93;;;19.20;99.90;;;;;;5050342;28;20583;-69
2023/08/11 02:34:15;;;;;;;2.03;0.90;;;19.20;99.90;;;;;;5050591;28;20233;-71
2023/08/11 02:36:40;;;;;;;1.73;0.80;;;19.20;99.90;;;;;;5050777;28;20173;-71
2023/08/11 02:39:06;;;;;;;2.38;0.80;;;19.20;99.90;;;;;;5051462;28;20666;-69
2023/08/11 02:41:32;;;;;;;3.22;0.90;;;19.30;99.90;;;;;;5053905;28;20181;-69
2023/08/11 02:43:58;;;;;;;3.30;0.73;;;19.30;99.90;;;;;;5054050;28;20177;-69
2023/08/11 02:46:23;;;;;;;4.75;1.00;;;19.10;99.90;;;;;;5053885;28;20670;-69
2023/08/11 02:48:49;;;;;;;7.55;1.27;;;19.00;99.90;;;;;;5053780;28;20220;-70
2023/08/11 02:51:15;;;;;;;6.00;1.40;;;;;;;;;;5052849;28;20640;-70
2023/08/11 02:53:41;;;;;;;7.05;1.70;;;18.90;99.90;;;;;;5053830;28;20181;-70
2023/08/11 02:56:09;;;;;;;9.32;1.88;;;18.90;99.90;;;;;;5053621;28;20180;-69
2023/08/11 02:58:35;;;;;;;11.63;2.30;;;18.90;99.90;;;;;;5053438;28;20185;-69
2023/08/11 03:01:02;;;;;;;11.73;2.40;;;;;;;;;;5053598;28;20177;-70
2023/08/11 03:03:28;;;;;;;9.68;2.30;;;;;;;;;;5035240;28;20644;-70
2023/08/11 03:05:55;;;;;;;10.77;2.00;;;18.60;99.90;;;;;;5035603;28;20181;-72
2023/08/11 03:08:21;;;;;;;10.98;2.50;;;18.70;99.90;;;;;;5053467;28;20243;-70
2023/08/11 03:10:46;;;;;;;13.88;2.63;;;18.80;99.90;;;;;;5052651;28;20628;-71
2023/08/11 03:13:12;;;;;;;14.50;2.78;;;;;;;;;;5052512;28;20247;-71
2023/08/11 03:15:38;;;;;;;11.90;2.50;;;18.60;99.90;;;;;;5052592;28;20631;-71
2023/08/11 03:18:04;;;;;;;10.75;2.03;;;18.60;99.90;;;;;;5053079;28;20189;-69
2023/08/11 03:20:29;;;;;;;12.80;2.33;;;18.50;99.90;;;;;;5053647;28;20698;-70
2023/08/11 03:22:56;;;;;;;8.90;1.92;;;;;;;;;;5051579;28;20196;-70
2023/08/11 03:25:21;;;;;;;11.30;2.28;;;18.30;99.90;;;;;;5053351;28;20275;-72
2023/08/11 03:27:47;;;;;;;13.68;3.00;;;18.40;99.90;;;;;;5052520;28;20288;-69
2023/08/11 03:30:13;;;;;;;9.77;2.05;;;18.20;99.90;;;;;;5053054;28;20184;-69
2023/08/11 03:32:39;;;;;;;11.73;3.08;;;18.40;99.90;;;;;;5052438;28;20234;-70
2023/08/11 03:35:07;;;;;;;7.85;2.17;;;18.40;99.90;;;;;;5052950;28;20177;-68
2023/08/11 03:37:34;;;;;;;13.38;2.78;;;18.50;99.90;;;;;;5052711;28;20669;-68
2023/08/11 03:40:00;;;;;;;6.90;1.92;;;18.40;99.90;;;;;;5052124;28;20185;-69
2023/08/11 03:42:27;;;;;;;14.18;2.72;;;18.40;99.90;;;;;;5052319;28;20221;-69
2023/08/11 03:44:53;;;;;;;11.43;2.80;;;;;;;;;;5052484;28;20213;-69
2023/08/11 03:47:19;;;;;;;10.38;2.42;;;18.50;99.90;;;;;;5052388;28;20185;-70
2023/08/11 03:49:45;;;;;;;11.68;2.42;;;18.30;99.90;;;;;;5052304;28;20225;-70
2023/08/11 03:52:12;;;;;;;9.32;1.88;;;18.20;99.90;;;;;;5051656;28;20252;-70
2023/08/11 03:54:38;;;;;;;9.25;2.45;;;18.30;99.90;;;;;;5052670;28;20219;-70
2023/08/11 03:57:03;;;;;;;12.38;2.38;;;18.40;99.90;;;;;;5051575;28;20197;-70
2023/08/11 03:59:30;;;;;;;14.48;2.50;;;;;;;;;;5052684;28;20165;-70
2023/08/11 04:01:55;;;;;;;9.45;1.95;;;18.20;99.90;;;;;;5052303;28;20181;-71
2023/08/11 04:04:21;;;;;;;8.77;2.45;;;;;;;;;;5052637;28;20177;-71
2023/08/11 04:06:47;;;;;;;12.07;2.13;;;18.00;99.90;;;;;;5052543;28;20726;-71
2023/08/11 04:09:12;;;;;;;12.88;2.63;;;18.00;99.90;;;;;;5052232;28;20217;-71
2023/08/11 04:11:39;;;;;;;12.65;2.58;;;;;;;;;;5051884;28;20252;-72
2023/08/11 04:14:04;;;;;;;10.98;2.25;;;18.00;99.90;;;;;;5052369;28;20620;-71
2023/08/11 04:16:30;;;;;;;11.35;2.45;;;18.10;99.90;;;;;;5052336;28;20215;-70
2023/08/11 04:18:55;;;;;;;11.02;2.08;;;18.10;99.90;;;;;;5052393;28;20560;-70
2023/08/11 04:21:23;;;;;;;11.50;2.28;;;17.80;99.90;;;;;;5052133;28;20306;-71
2023/08/11 04:23:49;;;;;;;12.90;2.20;;;18.10;99.90;;;;;;5052309;28;20181;-71
2023/08/11 04:26:14;;;;;;;9.13;2.28;;;18.20;99.90;;;;;;5050762;28;20216;-70
2023/08/11 04:28:43;;;;;;;10.65;2.28;;;18.30;99.90;;;;;;5051873;28;20346;-70
2023/08/11 04:31:09;;;;;;;12.35;2.08;;;18.10;99.90;;;;;;5052152;28;20165;-71
2023/08/11 04:33:35;;;;;;;9.32;1.98;;;18.00;99.90;;;;;;5051822;28;20184;-70
2023/08/11 04:36:02;;;;;;;7.85;1.88;;;18.20;99.90;;;;;;5052105;28;20555;-71
2023/08/11 04:38:30;;;;;;;12.95;2.55;;;18.20;99.90;;;;;;5051852;28;20181;-70
2023/08/11 04:40:57;;;;;;;11.20;1.95;;;18.00;99.90;;;;;;5051102;28;20250;-71
2023/08/11 04:43:22;;;;;;;11.15;2.58;;;18.10;99.90;;;;;;5051790;28;20173;-70
2023/08/11 04:45:49;;;;;;;11.18;2.22;;;17.80;99.90;;;;;;5051693;28;20192;-70
2023/08/11 04:48:15;;;;;;;9.20;1.88;;;18.00;99.90;;;;;;5051577;28;20221;-70
2023/08/11 04:50:40;;;;;;;6.93;2.00;;;18.00;99.90;;;;;;5051584;28;20172;-70
2023/08/11 04:53:06;;;;;;;11.00;1.85;;;17.90;99.90;;;;;;5051506;28;20181;-71
2023/08/11 04:55:32;;;;;;;12.23;1.77;;;18.00;99.90;;;;;;5051489;28;20189;-71
2023/08/11 04:57:59;;;;;;;9.68;1.90;;;17.90;99.90;;;;;;5051026;28;20188;-70
2023/08/11 05:00:25;;;;;;;10.18;2.05;;;18.00;99.90;;;;;;5050825;28;20252;-69
2023/08/11 05:02:52;;;;;;;10.40;2.10;;;;;;;;;;5050552;28;20200;-69
2023/08/11 05:05:19;;;;;;;10.70;1.92;;;18.30;99.90;;;;;;5051570;28;20173;-71
2023/08/11 05:07:45;;;;;;;11.15;2.38;;;18.10;99.90;;;;;;5050960;28;20579;-70
2023/08/11 05:10:11;;;;;;;7.65;2.25;;;18.30;99.90;;;;;;5050785;28;20181;-69
2023/08/11 05:12:36;;;;;;;7.85;2.08;;;18.00;99.90;;;;;;5050749;28;20222;-69
2023/08/11 05:15:03;;;;;;;9.23;2.17;;;18.20;99.90;;;;;;5049999;28;20223;-71
2023/08/11 05:17:30;;;;;;;12.10;2.50;;;18.20;99.90;;;;;;5051055;28;20165;-70
2023/08/11 05:19:57;;;;;;;9.20;2.05;;;18.30;99.90;;;;;;5051057;28;20238;-70
2023/08/11 05:22:23;;;;;;;7.20;1.98;;;18.30;99.90;;;;;;5050953;28;20177;-70
2023/08/11 05:24:48;;;;;;;12.57;2.05;;;18.30;99.90;;;;;;5049778;28;20221;-71
2023/08/11 05:27:15;;;;;;;8.60;2.28;;;18.30;99.90;;;;;;5051091;28;20538;-71
2023/08/11 05:29:45;;;;;;;11.52;1.92;;;18.30;99.90;;;;;;5050783;28;20223;-71
2023/08/11 05:32:11;;;;;;;12.00;2.60;;;18.40;99.90;;;;;;5051064;28;20544;-71
2023/08/11 05:34:37;;;;;;;11.60;2.65;;;18.50;99.90;;;;;;5051002;28;20181;-71
2023/08/11 05:37:03;;;;;;;10.98;2.22;;;18.50;99.90;;;;;;5050722;28;20176;-71
2023/08/11 05:39:29;;;;;;;12.07;2.38;;;18.60;99.90;;;;;;5050897;28;20255;-70
2023/08/11 05:41:55;;;;;;;14.23;2.70;;;18.60;99.90;;;;;;5050504;28;20259;-71
2023/08/11 05:44:20;;;;;;;10.65;2.88;;;18.70;99.90;;;;;;5050866;28;20531;-70
2023/08/11 05:46:46;;;;;;;8.70;2.10;;;18.60;99.90;;;;;;5050648;28;20540;-71
2023/08/11 05:49:12;;;;;;;9.13;2.20;;;18.60;99.90;;;;;;5050727;28;20687;-71
2023/08/11 05:51:38;;;;;;;10.30;2.42;;;18.60;99.90;;;;;;5050513;28;20180;-71
2023/08/11 05:54:04;;;;;;;12.35;2.50;;;18.60;99.90;;;;;;5050764;28;20172;-71
2023/08/11 05:56:29;;;;;;;16.65;2.83;;;18.60;99.90;;;;;;5050705;28;20690;-70
2023/08/11 05:58:55;;;;;;;16.63;2.83;;;18.60;99.90;;;;;;5050694;28;20239;-71
2023/08/11 06:01:20;;;;;;;9.75;2.28;;;18.60;99.90;;;;;;5050582;28;20173;-71
2023/08/11 06:03:46;;;;;;;13.82;2.70;;;18.60;99.90;;;;;;5050554;28;20267;-70
2023/08/11 06:06:12;;;;;;;14.05;2.95;;;18.60;99.90;;;;;;5050735;28;20244;-69
2023/08/11 06:08:38;;;;;;;15.50;2.85;;;18.60;99.90;;;;;;5050566;28;20216;-69
2023/08/11 06:11:03;;;;;;;9.88;2.20;;;18.60;99.90;;;;;;5051095;28;20569;-68
2023/08/11 06:13:29;;;;;;;12.20;2.50;;;18.60;99.90;;;;;;5051486;28;20177;-69
2023/08/11 06:15:55;;;;;;;16.70;2.90;;;18.50;99.90;;;;;;5053581;28;20169;-69
2023/08/11 06:18:20;;;;;;;11.27;2.50;;;18.50;99.90;;;;;;5052734;28;20226;-70
2023/08/11 06:20:47;;;;;;;11.45;2.38;;;18.50;99.90;;;;;;5054250;28;20177;-70
2023/08/11 06:23:12;;;;;;;6.32;2.00;;;19.00;99.90;;;;;;5054212;28;20188;-70
2023/08/11 06:25:38;;;;;;;9.98;2.33;;;18.50;99.90;;;;;;5054228;28;20213;-69
2023/08/11 06:28:04;;;;;;;10.63;2.50;;;18.50;99.90;;;;;;5053472;28;20225;-69
2023/08/11 06:30:30;;;;;;;9.98;2.15;;;18.50;99.90;;;;;;5054059;28;20221;-70
2023/08/11 06:32:56;;;;;;;11.45;2.33;;;18.60;99.90;;;;;;5053604;28;20272;-70
2023/08/11 06:35:22;;;;;;;8.25;2.17;;;18.60;99.90;;;;;;5053021;28;20170;-69
2023/08/11 06:37:49;;;;;;;13.07;2.08;;;18.60;99.90;;;;;;5052654;28;20223;-69
2023/08/11 06:40:14;;;;;;;18.55;2.63;;;18.50;99.90;;;;;;5054369;28;20197;-70
2023/08/11 06:42:40;;;;;;;10.50;2.03;;;18.60;99.90;;;;;;5054023;28;20216;-69
2023/08/11 06:45:06;;;;;;;12.13;2.25;;;18.70;99.90;;;;;;5060124;28;20173;-70
2023/08/11 06:47:34;;;;;;;7.30;1.52;;;18.70;99.90;;;;;;5053757;28;20173;-70
2023/08/11 06:50:00;;;;;;;8.38;1.83;;;18.40;99.90;;;;;;5053853;28;20173;-70
2023/08/11 06:52:26;;;;;;;9.15;2.15;;;18.60;99.90;;;;;;5053921;28;20169;-70
2023/08/11 06:54:52;;;;;;;10.05;2.05;;;18.60;99.90;;;;;;5053252;28;20184;-70
2023/08/11 06:57:21;;;;;;;8.85;2.10;;;18.60;99.90;;;;;;5053686;28;20535;-69
2023/08/11 06:59:49;;;;;;;10.90;2.05;;;18.60;99.90;;;;;;5053243;28;20173;-69
2023/08/11 07:02:15;;;;;;;8.63;2.15;;;18.60;99.90;;;;;;5053691;28;20220;-70
2023/08/11 07:04:41;;;;;;;10.90;2.33;;;19.50;99.90;;;;;;5052904;28;20209;-70
2023/08/11 07:07:07;;;;;;;9.32;2.13;;;18.60;99.90;;;;;;5053439;28;20252;-70
2023/08/11 07:09:33;;;;;;;13.10;2.40;;;18.60;99.90;;;;;;5053557;28;20259;-70
2023/08/11 07:11:59;;;;;;;13.70;2.47;;;18.60;99.90;;;;;;5053087;28;20648;-69
2023/08/11 07:14:25;;;;;;;7.63;2.33;;;18.50;99.90;;;;;;5053522;28;20226;-70
2023/08/11 07:16:51;;;;;;;7.32;1.50;;;18.50;99.90;;;;;;5053379;28;20662;-70
2023/08/11 07:19:18;;;;;;;11.52;2.17;;;18.40;99.90;;;;;;5053256;28;20537;-70
2023/08/11 07:21:44;;;;;;;9.13;1.85;;;18.60;99.90;;;;;;5053145;28;20212;-70
2023/08/11 07:24:10;;;;;;;8.93;1.90;;;18.90;99.90;;;;;;5052685;28;20204;-70
2023/08/11 07:26:35;;;;;;;11.98;2.38;;;18.70;99.90;;;;;;5052219;28;20229;-70
2023/08/11 07:29:01;;;;;;;10.70;2.38;;;;;;;;;;5052181;28;20216;-70
2023/08/11 07:31:27;;;;;;;5.78;1.45;;;18.90;99.90;;;;;;5052933;28;20170;-70
2023/08/11 07:33:53;;;;;;;8.25;2.00;;;18.90;99.90;;;;;;5052800;28;20682;-69
2023/08/11 07:36:20;;;;;;;10.38;2.15;;;;;;;;;;5053099;28;20737;-71
2023/08/11 07:38:48;;;;;;;12.30;2.30;;;18.90;99.90;;;;;;5051436;28;20196;-69
2023/08/11 07:41:14;;;;;;;15.07;2.10;;;18.80;99.90;;;;;;5052822;28;20173;-69
2023/08/11 07:43:40;;;;;;;15.32;2.35;;;19.00;99.90;;;;;;5052464;28;20173;-70
2023/08/11 07:46:05;;;;;;;15.80;2.70;;;19.00;99.90;;;;;;5052617;28;20210;-70
2023/08/11 07:48:31;;;;;;;17.23;3.05;;;19.20;99.90;;;;;;5052183;28;20695;-70
2023/08/11 07:50:57;;;;;;;17.67;3.17;;;19.40;99.90;;;;;;5051524;28;20201;-70
2023/08/11 07:53:23;;;;;;;13.30;2.65;;;19.40;99.90;;;;;;5039611;28;20205;-71
2023/08/11 07:55:48;;;;;;;9.60;2.15;;;19.80;99.90;;;;;;5052358;28;20647;-71
2023/08/11 07:58:14;;;;;;;13.07;2.58;;;19.80;99.90;;;;;;5051956;28;20652;-70
2023/08/11 08:00:40;;;;;;;7.45;2.00;;;20.00;99.90;;;;;;5052332;28;20180;-70
2023/08/11 08:03:05;;;;;;;15.38;2.67;;;20.20;99.90;;;;;;5052299;28;20173;-70
2023/08/11 08:05:32;;;;;;;9.93;2.20;;;20.00;99.90;;;;;;5052477;28;20170;-70
2023/08/11 08:07:58;;;;;;;17.23;3.20;;;20.10;99.90;;;;;;5051850;28;20217;-70
2023/08/11 08:10:25;;;;;;;10.20;2.05;;;20.00;99.90;;;;;;5052265;28;20677;-70
2023/08/11 08:12:51;;;;;;;9.23;2.28;;;20.10;99.90;;;;;;5034381;28;20226;-69
2023/08/11 08:15:17;;;;;;;12.55;2.10;;;20.10;99.90;;;;;;5051407;28;20185;-70
2023/08/11 08:17:43;;;;;;;9.23;2.75;;;20.30;99.90;;;;;;5051726;28;20187;-70
2023/08/11 08:20:09;;;;;;;9.55;2.22;;;20.30;99.90;;;;;;5052459;28;20182;-72
2023/08/11 08:22:38;;;;;;;11.13;2.50;;;20.40;99.90;;;;;;5051938;28;20632;-70
2023/08/11 08:25:07;;;;;;;10.43;2.15;;;20.40;99.90;;;;;;5051373;28;20383;-70
2023/08/11 08:27:37;;;;;;;11.43;2.00;;;20.70;99.90;;;;;;5051557;28;20180;-69
2023/08/11 08:30:03;;;;;;;9.13;1.90;;;20.60;99.90;;;;;;5050736;28;20231;-69
2023/08/11 08:32:29;;;;;;;8.98;1.75;;;20.60;99.90;;;;;;5051305;28;20173;-70
2023/08/11 08:34:55;;;;;;;7.60;1.83;;;20.80;99.90;;;;;;5052170;28;20256;-70
2023/08/11 08:37:20;;;;;;;10.77;2.15;;;21.20;99.90;;;;;;5050591;28;20666;-70
2023/08/11 08:39:46;;;;;;;8.88;1.98;;;21.90;99.90;;;;;;5051618;28;20191;-71
2023/08/11 08:42:14;;;;;;;7.95;1.95;;;22.00;99.90;;;;;;5051811;28;20170;-70
2023/08/11 08:44:41;;;;;;;7.05;1.85;;;23.00;99.90;;;;;;5051248;28;20182;-71
2023/08/11 08:47:08;;;;;;;9.60;1.73;;;23.10;99.90;;;;;;5049735;28;20284;-70
2023/08/11 08:49:36;;;;;;;7.88;2.13;;;23.40;99.90;;;;;;5050893;28;20687;-71
2023/08/11 08:52:03;;;;;;;8.63;1.63;;;23.40;99.90;;;;;;5051790;28;20231;-71
2023/08/11 08:54:30;;;;;;;12.20;1.88;;;23.00;99.90;;;;;;5051701;28;20165;-69
2023/08/11 08:56:57;;;;;;;9.23;1.95;;;22.20;99.90;;;;;;5051515;28;20180;-70
2023/08/11 08:59:23;;;;;;;10.15;2.10;;;22.40;99.90;;;;;;5061164;28;20176;-70
2023/08/11 09:01:50;;;;;;;8.98;1.70;;;22.00;99.90;;;;;;5053926;28;20543;-71
2023/08/11 09:04:16;;;;;;;12.07;2.38;;;21.90;99.90;;;;;;5051396;28;20212;-70
2023/08/11 09:06:42;;;;;;;9.50;2.25;;;21.90;99.90;;;;;;5049728;28;20194;-70
2023/08/11 09:09:10;;;;;;;8.38;1.92;;;22.20;99.90;;;;;;5062470;28;20243;-70
2023/08/11 09:11:38;;;;;;;8.68;1.90;;;23.30;99.90;;;;;;5061718;28;20172;-70
2023/08/11 09:14:07;;;;;;;13.70;2.20;;;24.10;99.90;;;;;;5052691;28;20303;-71
2023/08/11 09:16:39;;;;;;;9.85;1.90;;;24.30;99.90;;;;;;5050193;28;20200;-70
2023/08/11 09:19:10;;;;;;;7.40;2.00;;;24.80;99.90;;;;;;5050453;28;20196;-70
2023/08/11 09:21:36;;;;;;;6.95;2.13;;;24.90;99.90;;;;;;5051060;28;20165;-70
2023/08/11 09:24:02;;;;;;;12.70;2.20;;;24.50;99.90;;;;;;5051119;28;20177;-71
2023/08/11 09:26:28;;;;;;;9.02;1.92;;;;;;;;;;5052195;28;20239;-71
2023/08/11 09:28:54;;;;;;;10.10;2.10;;;24.20;99.90;;;;;;5060946;28;20236;-70
2023/08/11 09:31:24;;;;;;;6.50;1.77;;;23.90;99.90;;;;;;5050595;28;20191;-71
2023/08/11 09:33:51;;;;;;;5.82;1.70;;;24.00;99.90;;;;;;5051178;28;20173;-71
2023/08/11 09:36:18;;;;;;;11.07;1.92;;;23.90;99.90;;;;;;5050418;28;20223;-70
2023/08/11 09:38:45;;;;;;;7.03;2.30;;;24.30;99.90;;;;;;5050930;28;20188;-71
2023/08/11 09:41:12;;;;;;;12.70;2.03;;;24.50;99.90;;;;;;5050916;28;20209;-70
2023/08/11 09:43:38;;;;;;;9.48;2.22;;;24.30;99.90;;;;;;5050521;28;20242;-71
2023/08/11 09:46:04;;;;;;;6.22;1.70;;;24.40;99.90;;;;;;5048944;28;20177;-70
2023/08/11 09:48:31;;;;;;;11.68;2.35;;;24.30;99.90;;;;;;5050591;28;20288;-70
2023/08/11 09:50:58;;;;;;;13.25;2.20;;;24.30;99.90;;;;;;5050675;28;20234;-71
2023/08/11 09:53:24;;;;;;;7.57;2.13;;;24.40;99.90;;;;;;5049632;28;20203;-71
2023/08/11 09:55:54;;;;;;;8.20;1.90;;;24.30;99.90;;;;;;5024386;28;20200;-71
2023/08/11 09:58:26;;;;;;;12.85;2.00;;;24.10;99.90;;;;;;5049561;28;20173;-70
2023/08/11 10:00:54;;;;;;;11.10;2.25;;;24.80;99.90;;;;;;5050777;28;20247;-72
2023/08/11 10:03:26;;;;;;;7.13;1.90;;;24.40;99.90;;;;;;5048380;28;20180;-71
2023/08/11 10:05:54;;;;;;;13.35;2.20;;;25.00;47.50;;;;;;5056411;28;20181;-71
2023/08/11 10:08:23;;;;;;;14.27;2.42;;;25.30;91.60;;;;;;5048291;28;20247;-70
2023/08/11 10:10:49;;;;;;;13.80;2.78;;;25.40;1.00;;;;;;5050977;28;20177;-70
2023/08/11 10:13:17;;;;;;;10.90;2.30;;;25.20;99.90;;;;;;5048786;28;20673;-71
2023/08/11 10:15:44;;;;;;;12.07;2.25;;;25.50;1.00;;;;;;5050085;28;20166;-70
2023/08/11 10:18:10;;;;;;;9.75;2.15;;;25.40;99.90;;;;;;5050072;28;20184;-70
2023/08/11 10:20:36;;;;;;;8.95;2.25;;;26.00;99.90;;;;;;5050208;28;20177;-70
2023/08/11 10:23:02;;;;;;;13.70;2.30;;;26.10;1.00;;;;;;5050861;28;20670;-71
2023/08/11 10:25:29;;;;;;;9.02;1.85;;;25.70;1.00;;;;;;5047769;28;20699;-71
2023/08/11 10:27:56;;;;;;;12.70;2.30;;;26.30;1.00;;;;;;5047373;28;20177;-70
2023/08/11 10:30:23;;;;;;;10.80;2.03;;;26.70;1.00;;;;;;5050046;28;20203;-71
2023/08/11 10:33:02;;;;;;;11.25;1.90;;;26.00;93.90;;;;;;5050410;28;20181;-70
2023/08/11 10:35:34;;;;;;;9.95;2.05;;;26.40;99.90;;;;;;5050390;28;20184;-70
2023/08/11 10:38:00;;;;;;;6.22;1.67;;;;;;;;;;5050388;28;20177;-70
2023/08/11 10:40:39;;;;;;;10.73;2.03;;;27.10;1.00;;;;;;5050247;28;20215;-71
2023/08/11 10:43:05;;;;;;;13.68;2.28;;;;;;;;;;5050220;28;20171;-70
2023/08/11 10:45:36;;;;;;;6.53;1.77;;;27.00;1.00;;;;;;5050047;28;20248;-71
2023/08/11 10:48:07;;;;;;;7.47;2.08;;;26.30;1.00;;;;;;5048817;28;20196;-71
2023/08/11 10:50:34;;;;;;;10.63;1.80;;;26.50;99.90;;;;;;5048591;28;20796;-71
2023/08/11 10:53:20;;;;;;;7.82;1.83;;;23.20;99.90;;;;;;5050369;28;20176;-71
2023/08/11 10:56:05;;;;;;;9.05;2.20;;;;;;;;;;5049937;28;20185;-71
2023/08/11 10:58:31;;;;;;;8.13;1.85;;;;;;;;;;5048846;28;20222;-72
2023/08/11 11:00:59;;;;;;;6.93;2.03;;;27.70;99.90;;;;;;5052532;28;20252;-72
2023/08/11 11:03:25;;;;;;;6.65;1.83;;;27.80;99.90;;;;;;5053797;28;20253;-74
2023/08/11 11:05:52;;;;;;;5.28;1.80;;;;;;;;;;5053648;28;20165;-74
2023/08/11 11:08:17;;;;;;;10.38;2.30;;;28.10;99.90;;;;;;5053231;28;20204;-73
2023/08/11 11:10:43;;;;;;;6.22;2.05;;;27.90;99.90;;;;;;5053496;28;20261;-76
2023/08/11 11:13:09;;;;;;;8.00;1.92;;;27.80;1.00;;;;;;5050895;28;20177;-72
2023/08/11 11:15:35;;;;;;;6.35;1.67;;;;;;;;;;5040486;28;20707;-73
2023/08/11 11:18:01;;;;;;;5.43;1.58;;;28.10;1.00;;;;;;5053280;28;20232;-71
2023/08/11 11:20:27;;;;;;;7.60;1.65;;;27.70;1.00;;;;;;5038124;28;20220;-72
2023/08/11 11:22:54;;;;;;;6.28;1.60;;;28.00;99.90;;;;;;5033291;28;20637;-72
2023/08/11 11:25:20;;;;;;;9.90;2.22;;;29.00;1.00;;;;;;5033277;28;20240;-72
2023/08/11 11:27:46;;;;;;;10.02;1.85;;;29.40;1.00;;;;;;5032022;28;20170;-72
2023/08/11 11:30:13;;;;;;;7.82;2.30;;;28.90;37.80;;;;;;5032358;28;20185;-72
2023/08/11 11:32:40;;;;;;;5.88;2.03;;;28.40;99.90;;;;;;5014233;28;20535;-73
2023/08/11 11:35:09;;;;;;;8.23;2.55;;;28.60;1.00;;;;;;5032145;28;20260;-74
2023/08/11 11:37:35;;;;;;;11.50;2.60;;;;;;;;;;5031995;28;20170;-73
2023/08/11 11:40:06;;;;;;;7.50;2.40;;;;;;;;;;5032320;28;20218;-73
2023/08/11 11:42:36;;;;;;;7.22;2.25;;;29.20;1.00;;;;;;5030324;28;20204;-72
2023/08/11 11:45:02;;;;;;;11.57;2.50;;;;;;;;;;5031804;28;20179;-72
2023/08/11 11:47:28;;;;;;;9.23;2.30;;;28.90;99.90;;;;;;5032829;28;20257;-72
2023/08/11 11:49:58;;;;;;;9.07;2.80;;;29.40;1.00;;;;;;5032408;28;20287;-72
2023/08/11 11:52:27;;;;;;;7.03;2.30;;;29.50;1.00;;;;;;5032870;28;20197;-72
2023/08/11 11:54:53;;;;;;;13.60;2.38;;;29.10;1.00;;;;;;5032739;28;20177;-72
2023/08/11 11:57:23;;;;;;;7.60;2.25;;;29.20;1.00;;;;;;5048117;28;20536;-73
2023/08/11 11:59:49;;;;;;;9.60;2.38;;;29.00;1.00;;;;;;5032879;28;20247;-73
2023/08/11 12:02:16;;;;;;;8.25;2.60;;;28.70;1.00;;;;;;5032668;28;20170;-73
2023/08/11 12:04:43;;;;;;;12.90;2.70;;;28.90;1.00;;;;;;5048146;28;20291;-73
2023/08/11 12:07:09;;;;;;;7.68;2.47;;;29.10;1.00;;;;;;5032892;28;20204;-74
2023/08/11 12:09:51;;;;;;;10.43;2.70;;;29.50;1.00;;;;;;5032773;28;20205;-73
2023/08/11 12:12:16;;;;;;;5.78;2.17;;;29.40;1.00;;;;;;5032243;28;20194;-73
2023/08/11 12:14:42;;;;;;;10.35;2.78;;;29.90;99.90;;;;;;5032617;28;20181;-73
2023/08/11 12:17:08;;;;;;;11.32;2.53;;;30.00;1.00;;;;;;5032631;28;20173;-72
2023/08/11 12:19:33;;;;;;;7.75;2.22;;;29.50;1.00;;;;;;5032604;28;20636;-72
2023/08/11 12:22:00;;;;;;;9.75;2.25;;;28.70;99.90;;;;;;5032291;28;20192;-72
2023/08/11 12:24:26;;;;;;;7.93;1.92;;;28.80;99.90;;;;;;5032203;28;20196;-72
2023/08/11 12:26:52;;;;;;;8.75;2.33;;;29.00;99.90;;;;;;5032223;28;20245;-72
2023/08/11 12:29:18;;;;;;;5.15;1.83;;;;;;;;;;5047627;28;20205;-72
2023/08/11 12:31:44;;;;;;;8.40;2.45;;;;;;;;;;5032337;28;21147;-72
2023/08/11 12:34:10;;;;;;;6.82;2.20;;;;;;;;;;5032327;28;20170;-71
2023/08/11 12:36:35;;;;;;;8.30;2.47;;;28.50;1.00;;;;;;5032064;28;20549;-72
2023/08/11 12:39:01;;;;;;;7.85;1.88;;;;;;;;;;5039457;28;20185;-71
2023/08/11 12:41:27;;;;;;;7.53;1.83;;;;;;;;;;5047810;28;20177;-73
2023/08/11 12:43:53;;;;;;;5.95;1.98;;;;;;;;;;5051868;28;20184;-73
2023/08/11 12:46:19;;;;;;;9.98;1.85;;;28.00;1.00;;;;;;5050868;28;20165;-71
2023/08/11 12:48:45;;;;;;;7.63;2.05;;;;;;;;;;5051775;28;20707;-70
2023/08/11 12:51:10;;;;;;;5.63;1.90;;;28.10;99.90;;;;;;5051834;28;20455;-71
2023/08/11 12:53:36;;;;;;;5.15;1.80;;;;;;;;;;5050346;28;20282;-71